Ana Sayfa
METAR-TAF:

METAR-TAF

Havaalanları :

Muş Havalimanı

Muş, Türkiye

Enlem: 38-45N, Boylam: 041-40E, yükseklik: 1266 m

Güncel hava durumu gözlemi

Rapor saat 04:50 UTC de 1 saat ve 5 dakika önce yapıldı.
Sakin rüzgar
Sıcaklık 21°C
Nem 46%
Basınç 1014 hPa
Görüş mesafesi 10 km veya daha fazla
1500 m altında bulut yok ve kümülonimbus yok

METAR: LTCK 170450Z 00000KT CAVOK 21/09 Q1014

Saat: 08:55 (05:55 UTC)

Tahmin

Rapor saat 04:40 UTC de 1 saat ve 15 dakika önce yapıldı.
Ayın 17'si saat 06 UTC'den ayın 17'si saat 15 UTC'ye kadar geçerli Tahmin
Rüzgar değişken yönden 2 kt
Görüş mesafesi 10 km veya daha fazla
1500 m altında bulut yok ve kümülonimbus yok
Dönüşüyor
ayın 17'si saat 10 UTC'den ayın 17'si saat 12 UTC'ye kadar
Rüzgar güney/güneybatıdan 12 kt

TAF: LTCK 170440Z 1706/1715 VRB02KT CAVOK BECMG 1710/1712 21012KT

4.000'den fazla havaalanı için hava durumu gözlemleri ve tahminleri (METAR ve TAF raporları).

Kullanılabilir istasyonlar harita üzerinde sarı ve kırmızı noktalarla gösterilir.

İstasyonun adını görmek için fareyi noktanın üzerinde gezdirin.

Sonrasında hava gözlem ve tahminlerini görmek için tıklayın.

Haritayı değiştirmek için: yaklaştırmak için siyah artı işaretli yeşil düğmeye ve uzaklaştırmak için de eksi işaretli düğmeye hızla tıklayın; bitişik haritalar için yeşil okları kullanın.


METAR-TAF: